sensor_id;sensor_type;location;lat;lon;timestamp;temperature;humidity
14172;DHT22;7165;52.388;4.928;2023-01-06T00:00:42;11.40;99.90
14172;DHT22;7165;52.388;4.928;2023-01-06T00:03:10;11.30;99.90
14172;DHT22;7165;52.388;4.928;2023-01-06T00:05:37;11.30;99.90
14172;DHT22;7165;52.388;4.928;2023-01-06T00:08:04;11.30;99.90
14172;DHT22;7165;52.388;4.928;2023-01-06T00:10:30;11.30;99.90
14172;DHT22;7165;52.388;4.928;2023-01-06T00:12:57;11.30;99.90
14172;DHT22;7165;52.388;4.928;2023-01-06T00:15:24;11.20;99.90
14172;DHT22;7165;52.388;4.928;2023-01-06T00:17:50;11.20;99.90
14172;DHT22;7165;52.388;4.928;2023-01-06T00:20:18;11.20;99.90
14172;DHT22;7165;52.388;4.928;2023-01-06T00:22:45;11.30;99.90
14172;DHT22;7165;52.388;4.928;2023-01-06T00:25:12;11.30;99.90
14172;DHT22;7165;52.388;4.928;2023-01-06T00:27:39;11.30;99.90
14172;DHT22;7165;52.388;4.928;2023-01-06T00:30:07;11.30;99.90
14172;DHT22;7165;52.388;4.928;2023-01-06T00:32:34;11.30;99.90
14172;DHT22;7165;52.388;4.928;2023-01-06T00:35:01;11.30;99.90
14172;DHT22;7165;52.388;4.928;2023-01-06T00:37:29;11.30;99.90
14172;DHT22;7165;52.388;4.928;2023-01-06T00:39:56;11.30;99.90
14172;DHT22;7165;52.388;4.928;2023-01-06T00:42:22;11.40;99.90
14172;DHT22;7165;52.388;4.928;2023-01-06T00:44:50;11.30;99.90
14172;DHT22;7165;52.388;4.928;2023-01-06T00:47:18;11.30;99.90
14172;DHT22;7165;52.388;4.928;2023-01-06T00:49:44;11.40;99.90
14172;DHT22;7165;52.388;4.928;2023-01-06T00:52:11;11.40;99.90
14172;DHT22;7165;52.388;4.928;2023-01-06T00:54:39;11.40;99.90
14172;DHT22;7165;52.388;4.928;2023-01-06T00:57:08;11.40;99.90
14172;DHT22;7165;52.388;4.928;2023-01-06T00:59:35;11.40;99.90
14172;DHT22;7165;52.388;4.928;2023-01-06T01:02:02;11.40;99.90
14172;DHT22;7165;52.388;4.928;2023-01-06T01:04:29;11.40;99.90
14172;DHT22;7165;52.388;4.928;2023-01-06T01:06:55;11.40;99.90
14172;DHT22;7165;52.388;4.928;2023-01-06T01:09:24;11.40;99.90
14172;DHT22;7165;52.388;4.928;2023-01-06T01:11:53;11.40;99.90
14172;DHT22;7165;52.388;4.928;2023-01-06T01:14:41;11.40;99.90
14172;DHT22;7165;52.388;4.928;2023-01-06T01:17:10;11.40;99.90
14172;DHT22;7165;52.388;4.928;2023-01-06T01:19:37;11.40;99.90
14172;DHT22;7165;52.388;4.928;2023-01-06T01:22:04;11.40;99.90
14172;DHT22;7165;52.388;4.928;2023-01-06T01:24:31;11.40;99.90
14172;DHT22;7165;52.388;4.928;2023-01-06T01:26:59;11.40;99.90
14172;DHT22;7165;52.388;4.928;2023-01-06T01:29:26;11.30;99.90
14172;DHT22;7165;52.388;4.928;2023-01-06T01:31:53;11.40;99.90
14172;DHT22;7165;52.388;4.928;2023-01-06T01:34:20;11.40;99.90
14172;DHT22;7165;52.388;4.928;2023-01-06T01:36:49;11.30;99.90
14172;DHT22;7165;52.388;4.928;2023-01-06T01:39:18;11.30;99.90
14172;DHT22;7165;52.388;4.928;2023-01-06T01:41:45;11.30;99.90
14172;DHT22;7165;52.388;4.928;2023-01-06T01:47:29;11.30;99.90
14172;DHT22;7165;52.388;4.928;2023-01-06T01:50:03;11.30;99.90
14172;DHT22;7165;52.388;4.928;2023-01-06T01:52:31;11.30;99.90
14172;DHT22;7165;52.388;4.928;2023-01-06T01:54:59;11.30;99.90
14172;DHT22;7165;52.388;4.928;2023-01-06T01:57:32;11.30;99.90
14172;DHT22;7165;52.388;4.928;2023-01-06T02:00:02;11.30;99.90
14172;DHT22;7165;52.388;4.928;2023-01-06T02:02:31;11.30;99.90
14172;DHT22;7165;52.388;4.928;2023-01-06T02:04:58;11.30;99.90
14172;DHT22;7165;52.388;4.928;2023-01-06T02:07:26;11.30;99.90
14172;DHT22;7165;52.388;4.928;2023-01-06T02:09:59;11.30;99.90
14172;DHT22;7165;52.388;4.928;2023-01-06T02:12:28;11.30;99.90
14172;DHT22;7165;52.388;4.928;2023-01-06T02:14:55;11.30;99.90
14172;DHT22;7165;52.388;4.928;2023-01-06T02:17:38;11.30;99.90
14172;DHT22;7165;52.388;4.928;2023-01-06T02:20:40;11.30;99.90
14172;DHT22;7165;52.388;4.928;2023-01-06T02:26:40;11.30;99.90
14172;DHT22;7165;52.388;4.928;2023-01-06T02:32:47;11.30;99.90
14172;DHT22;7165;52.388;4.928;2023-01-06T02:35:34;11.30;99.90
14172;DHT22;7165;52.388;4.928;2023-01-06T02:38:11;11.30;99.90
14172;DHT22;7165;52.388;4.928;2023-01-06T02:40:54;11.30;99.90
14172;DHT22;7165;52.388;4.928;2023-01-06T02:43:27;11.30;99.90
14172;DHT22;7165;52.388;4.928;2023-01-06T02:46:01;11.30;99.90
14172;DHT22;7165;52.388;4.928;2023-01-06T02:48:40;11.30;99.90
14172;DHT22;7165;52.388;4.928;2023-01-06T02:51:15;11.20;99.90
14172;DHT22;7165;52.388;4.928;2023-01-06T02:53:51;11.30;99.90
14172;DHT22;7165;52.388;4.928;2023-01-06T02:56:24;11.20;99.90
14172;DHT22;7165;52.388;4.928;2023-01-06T02:58:56;11.20;99.90
14172;DHT22;7165;52.388;4.928;2023-01-06T03:01:27;11.20;99.90
14172;DHT22;7165;52.388;4.928;2023-01-06T03:04:00;11.20;99.90
14172;DHT22;7165;52.388;4.928;2023-01-06T03:06:30;11.20;99.90
14172;DHT22;7165;52.388;4.928;2023-01-06T03:08:58;11.20;99.90
14172;DHT22;7165;52.388;4.928;2023-01-06T03:11:27;11.20;99.90
14172;DHT22;7165;52.388;4.928;2023-01-06T03:13:58;11.20;99.90
14172;DHT22;7165;52.388;4.928;2023-01-06T03:16:26;11.20;99.90
14172;DHT22;7165;52.388;4.928;2023-01-06T03:18:53;11.20;99.90
14172;DHT22;7165;52.388;4.928;2023-01-06T03:21:23;11.20;99.90
14172;DHT22;7165;52.388;4.928;2023-01-06T03:23:51;11.20;99.90
14172;DHT22;7165;52.388;4.928;2023-01-06T03:26:18;11.20;99.90
14172;DHT22;7165;52.388;4.928;2023-01-06T03:28:45;11.20;99.90
14172;DHT22;7165;52.388;4.928;2023-01-06T03:31:14;11.20;99.90
14172;DHT22;7165;52.388;4.928;2023-01-06T03:33:53;11.20;99.90
14172;DHT22;7165;52.388;4.928;2023-01-06T03:36:28;11.20;99.90
14172;DHT22;7165;52.388;4.928;2023-01-06T03:39:07;11.30;99.90
14172;DHT22;7165;52.388;4.928;2023-01-06T03:41:40;11.30;99.90
14172;DHT22;7165;52.388;4.928;2023-01-06T03:44:32;11.30;99.90
14172;DHT22;7165;52.388;4.928;2023-01-06T03:47:04;11.30;99.90
14172;DHT22;7165;52.388;4.928;2023-01-06T03:49:40;11.20;99.90
14172;DHT22;7165;52.388;4.928;2023-01-06T03:52:12;11.20;99.90
14172;DHT22;7165;52.388;4.928;2023-01-06T03:54:46;11.20;99.90
14172;DHT22;7165;52.388;4.928;2023-01-06T03:57:20;11.30;99.90
14172;DHT22;7165;52.388;4.928;2023-01-06T03:59:51;11.20;99.90
14172;DHT22;7165;52.388;4.928;2023-01-06T04:02:19;11.20;99.90
14172;DHT22;7165;52.388;4.928;2023-01-06T04:05:00;11.30;99.90
14172;DHT22;7165;52.388;4.928;2023-01-06T04:07:28;11.30;99.90
14172;DHT22;7165;52.388;4.928;2023-01-06T04:09:55;11.30;99.90
14172;DHT22;7165;52.388;4.928;2023-01-06T04:12:22;11.30;99.90
14172;DHT22;7165;52.388;4.928;2023-01-06T04:15:08;11.30;99.90
14172;DHT22;7165;52.388;4.928;2023-01-06T04:17:36;11.30;99.90
14172;DHT22;7165;52.388;4.928;2023-01-06T04:20:04;11.30;99.90
14172;DHT22;7165;52.388;4.928;2023-01-06T04:22:32;11.30;99.90
14172;DHT22;7165;52.388;4.928;2023-01-06T04:24:59;11.30;99.90
14172;DHT22;7165;52.388;4.928;2023-01-06T04:27:26;11.30;99.90
14172;DHT22;7165;52.388;4.928;2023-01-06T04:29:52;11.40;99.90
14172;DHT22;7165;52.388;4.928;2023-01-06T04:32:19;11.40;99.90
14172;DHT22;7165;52.388;4.928;2023-01-06T04:34:46;11.30;99.90
14172;DHT22;7165;52.388;4.928;2023-01-06T04:37:13;11.30;99.90
14172;DHT22;7165;52.388;4.928;2023-01-06T04:39:41;11.30;99.90
14172;DHT22;7165;52.388;4.928;2023-01-06T04:42:08;11.40;99.90
14172;DHT22;7165;52.388;4.928;2023-01-06T04:44:34;11.40;99.90
14172;DHT22;7165;52.388;4.928;2023-01-06T04:47:01;11.40;99.90
14172;DHT22;7165;52.388;4.928;2023-01-06T04:49:28;11.40;99.90
14172;DHT22;7165;52.388;4.928;2023-01-06T04:51:54;11.40;99.90
14172;DHT22;7165;52.388;4.928;2023-01-06T04:54:21;11.40;99.90
14172;DHT22;7165;52.388;4.928;2023-01-06T04:56:49;11.50;99.90
14172;DHT22;7165;52.388;4.928;2023-01-06T04:59:16;11.50;99.90
14172;DHT22;7165;52.388;4.928;2023-01-06T05:01:43;11.50;99.90
14172;DHT22;7165;52.388;4.928;2023-01-06T05:04:09;11.50;99.90
14172;DHT22;7165;52.388;4.928;2023-01-06T05:06:36;11.50;99.90
14172;DHT22;7165;52.388;4.928;2023-01-06T05:09:03;11.50;99.90
14172;DHT22;7165;52.388;4.928;2023-01-06T05:11:30;11.50;99.90
14172;DHT22;7165;52.388;4.928;2023-01-06T05:13:58;11.40;99.90
14172;DHT22;7165;52.388;4.928;2023-01-06T05:16:26;11.40;99.90
14172;DHT22;7165;52.388;4.928;2023-01-06T05:18:54;11.30;99.90
14172;DHT22;7165;52.388;4.928;2023-01-06T05:21:22;11.30;99.90
14172;DHT22;7165;52.388;4.928;2023-01-06T05:23:50;11.20;99.90
14172;DHT22;7165;52.388;4.928;2023-01-06T05:26:18;11.20;99.90
14172;DHT22;7165;52.388;4.928;2023-01-06T05:28:45;11.10;99.90
14172;DHT22;7165;52.388;4.928;2023-01-06T05:31:13;11.10;99.90
14172;DHT22;7165;52.388;4.928;2023-01-06T05:33:40;11.10;99.90
14172;DHT22;7165;52.388;4.928;2023-01-06T05:36:08;11.10;99.90
14172;DHT22;7165;52.388;4.928;2023-01-06T05:38:35;11.10;99.90
14172;DHT22;7165;52.388;4.928;2023-01-06T05:41:02;11.00;99.90
14172;DHT22;7165;52.388;4.928;2023-01-06T05:43:31;11.00;99.90
14172;DHT22;7165;52.388;4.928;2023-01-06T05:45:58;10.90;99.90
14172;DHT22;7165;52.388;4.928;2023-01-06T05:48:26;10.90;99.90
14172;DHT22;7165;52.388;4.928;2023-01-06T05:51:00;10.90;99.90
14172;DHT22;7165;52.388;4.928;2023-01-06T05:53:29;10.90;99.90
14172;DHT22;7165;52.388;4.928;2023-01-06T05:55:58;10.90;99.90
14172;DHT22;7165;52.388;4.928;2023-01-06T05:58:26;10.80;99.90
14172;DHT22;7165;52.388;4.928;2023-01-06T06:00:52;10.80;99.90
14172;DHT22;7165;52.388;4.928;2023-01-06T06:03:19;10.80;99.90
14172;DHT22;7165;52.388;4.928;2023-01-06T06:05:47;10.80;99.90
14172;DHT22;7165;52.388;4.928;2023-01-06T06:08:14;10.80;99.90
14172;DHT22;7165;52.388;4.928;2023-01-06T06:10:40;10.80;99.90
14172;DHT22;7165;52.388;4.928;2023-01-06T06:13:07;10.80;99.90
14172;DHT22;7165;52.388;4.928;2023-01-06T06:15:34;10.80;99.90
14172;DHT22;7165;52.388;4.928;2023-01-06T06:18:01;10.80;99.90
14172;DHT22;7165;52.388;4.928;2023-01-06T06:20:27;10.80;99.90
14172;DHT22;7165;52.388;4.928;2023-01-06T06:22:55;10.80;99.90
14172;DHT22;7165;52.388;4.928;2023-01-06T06:25:22;10.80;99.90
14172;DHT22;7165;52.388;4.928;2023-01-06T06:27:49;10.80;99.90
14172;DHT22;7165;52.388;4.928;2023-01-06T06:30:16;10.80;99.90
14172;DHT22;7165;52.388;4.928;2023-01-06T06:32:42;10.80;99.90
14172;DHT22;7165;52.388;4.928;2023-01-06T06:35:09;10.80;99.90
14172;DHT22;7165;52.388;4.928;2023-01-06T06:37:36;10.80;99.90
14172;DHT22;7165;52.388;4.928;2023-01-06T06:40:05;10.80;99.90
14172;DHT22;7165;52.388;4.928;2023-01-06T06:42:32;10.90;99.90
14172;DHT22;7165;52.388;4.928;2023-01-06T06:48:21;10.90;99.90
14172;DHT22;7165;52.388;4.928;2023-01-06T06:50:55;10.90;99.90
14172;DHT22;7165;52.388;4.928;2023-01-06T06:53:22;11.00;99.90
14172;DHT22;7165;52.388;4.928;2023-01-06T06:55:50;11.00;99.90
14172;DHT22;7165;52.388;4.928;2023-01-06T06:58:17;10.90;99.90
14172;DHT22;7165;52.388;4.928;2023-01-06T07:00:43;11.00;99.90
14172;DHT22;7165;52.388;4.928;2023-01-06T07:03:10;10.90;99.90
14172;DHT22;7165;52.388;4.928;2023-01-06T07:05:37;10.90;99.90
14172;DHT22;7165;52.388;4.928;2023-01-06T07:08:04;10.90;99.90
14172;DHT22;7165;52.388;4.928;2023-01-06T07:10:31;10.80;99.90
14172;DHT22;7165;52.388;4.928;2023-01-06T07:12:59;10.80;99.90
14172;DHT22;7165;52.388;4.928;2023-01-06T07:15:26;10.70;99.90
14172;DHT22;7165;52.388;4.928;2023-01-06T07:17:52;10.70;99.90
14172;DHT22;7165;52.388;4.928;2023-01-06T07:20:19;10.70;99.90
14172;DHT22;7165;52.388;4.928;2023-01-06T07:22:46;10.60;99.90
14172;DHT22;7165;52.388;4.928;2023-01-06T07:25:13;10.60;99.90
14172;DHT22;7165;52.388;4.928;2023-01-06T07:27:40;10.60;99.90
14172;DHT22;7165;52.388;4.928;2023-01-06T07:30:09;10.60;99.90
14172;DHT22;7165;52.388;4.928;2023-01-06T07:32:36;10.50;99.90
14172;DHT22;7165;52.388;4.928;2023-01-06T07:35:04;10.50;99.90
14172;DHT22;7165;52.388;4.928;2023-01-06T07:37:30;10.40;99.90
14172;DHT22;7165;52.388;4.928;2023-01-06T07:39:57;10.40;99.90
14172;DHT22;7165;52.388;4.928;2023-01-06T07:42:24;10.40;99.90
14172;DHT22;7165;52.388;4.928;2023-01-06T07:48:14;10.30;99.90
14172;DHT22;7165;52.388;4.928;2023-01-06T07:50:41;10.20;99.90
14172;DHT22;7165;52.388;4.928;2023-01-06T07:53:08;10.20;99.90
14172;DHT22;7165;52.388;4.928;2023-01-06T07:55:35;10.20;99.90
14172;DHT22;7165;52.388;4.928;2023-01-06T07:58:03;10.20;99.90
14172;DHT22;7165;52.388;4.928;2023-01-06T08:00:30;10.10;99.90
14172;DHT22;7165;52.388;4.928;2023-01-06T08:02:57;10.10;99.90
14172;DHT22;7165;52.388;4.928;2023-01-06T08:05:25;10.10;99.90
14172;DHT22;7165;52.388;4.928;2023-01-06T08:07:51;10.00;99.90
14172;DHT22;7165;52.388;4.928;2023-01-06T08:10:18;10.00;99.90
14172;DHT22;7165;52.388;4.928;2023-01-06T08:12:45;9.90;99.90
14172;DHT22;7165;52.388;4.928;2023-01-06T08:15:11;9.90;99.90
14172;DHT22;7165;52.388;4.928;2023-01-06T08:17:38;9.80;99.90
14172;DHT22;7165;52.388;4.928;2023-01-06T08:20:05;9.80;99.90
14172;DHT22;7165;52.388;4.928;2023-01-06T08:22:33;9.80;99.90
14172;DHT22;7165;52.388;4.928;2023-01-06T08:25:00;9.80;99.90
14172;DHT22;7165;52.388;4.928;2023-01-06T08:27:27;9.80;99.90
14172;DHT22;7165;52.388;4.928;2023-01-06T08:29:54;9.80;99.90
14172;DHT22;7165;52.388;4.928;2023-01-06T08:32:20;9.70;99.90
14172;DHT22;7165;52.388;4.928;2023-01-06T08:34:47;9.80;99.90
14172;DHT22;7165;52.388;4.928;2023-01-06T08:37:14;9.70;99.90
14172;DHT22;7165;52.388;4.928;2023-01-06T08:39:42;9.70;99.90
14172;DHT22;7165;52.388;4.928;2023-01-06T08:42:09;9.70;99.90
14172;DHT22;7165;52.388;4.928;2023-01-06T08:44:35;9.70;99.90
14172;DHT22;7165;52.388;4.928;2023-01-06T08:47:02;9.70;99.90
14172;DHT22;7165;52.388;4.928;2023-01-06T08:49:29;9.70;99.90
14172;DHT22;7165;52.388;4.928;2023-01-06T08:51:56;9.70;99.90
14172;DHT22;7165;52.388;4.928;2023-01-06T08:54:23;9.70;99.90
14172;DHT22;7165;52.388;4.928;2023-01-06T08:56:51;9.70;99.90
14172;DHT22;7165;52.388;4.928;2023-01-06T08:59:17;9.60;99.90
14172;DHT22;7165;52.388;4.928;2023-01-06T09:01:44;9.70;99.90
14172;DHT22;7165;52.388;4.928;2023-01-06T09:07:32;9.70;99.90
14172;DHT22;7165;52.388;4.928;2023-01-06T09:09:59;9.70;99.90
14172;DHT22;7165;52.388;4.928;2023-01-06T09:12:27;9.70;99.90
14172;DHT22;7165;52.388;4.928;2023-01-06T09:14:54;9.70;99.90
14172;DHT22;7165;52.388;4.928;2023-01-06T09:17:21;9.70;99.90
14172;DHT22;7165;52.388;4.928;2023-01-06T09:19:47;9.70;99.90
14172;DHT22;7165;52.388;4.928;2023-01-06T09:22:14;9.70;99.90
14172;DHT22;7165;52.388;4.928;2023-01-06T09:24:41;9.80;99.90
14172;DHT22;7165;52.388;4.928;2023-01-06T09:27:31;9.80;99.90
14172;DHT22;7165;52.388;4.928;2023-01-06T09:29:58;9.80;99.90
14172;DHT22;7165;52.388;4.928;2023-01-06T09:32:25;9.80;99.90
14172;DHT22;7165;52.388;4.928;2023-01-06T09:34:51;9.90;99.90
14172;DHT22;7165;52.388;4.928;2023-01-06T09:37:18;9.90;99.90
14172;DHT22;7165;52.388;4.928;2023-01-06T09:39:45;9.90;99.90
14172;DHT22;7165;52.388;4.928;2023-01-06T09:42:19;10.00;99.90
14172;DHT22;7165;52.388;4.928;2023-01-06T09:44:54;10.00;99.90
14172;DHT22;7165;52.388;4.928;2023-01-06T09:47:25;10.10;99.90
14172;DHT22;7165;52.388;4.928;2023-01-06T09:49:56;10.10;99.90
14172;DHT22;7165;52.388;4.928;2023-01-06T09:52:28;10.20;99.90
14172;DHT22;7165;52.388;4.928;2023-01-06T09:55:02;10.20;99.90
14172;DHT22;7165;52.388;4.928;2023-01-06T09:57:32;10.20;99.90
14172;DHT22;7165;52.388;4.928;2023-01-06T10:00:04;10.20;99.90
14172;DHT22;7165;52.388;4.928;2023-01-06T10:02:35;10.30;99.90
14172;DHT22;7165;52.388;4.928;2023-01-06T10:05:03;10.30;99.90
14172;DHT22;7165;52.388;4.928;2023-01-06T10:07:42;10.30;99.90
14172;DHT22;7165;52.388;4.928;2023-01-06T10:10:16;10.40;99.90
14172;DHT22;7165;52.388;4.928;2023-01-06T10:12:51;10.40;99.90
14172;DHT22;7165;52.388;4.928;2023-01-06T10:15:32;10.40;99.90
14172;DHT22;7165;52.388;4.928;2023-01-06T10:18:13;10.40;99.90
14172;DHT22;7165;52.388;4.928;2023-01-06T10:20:54;10.40;99.90
14172;DHT22;7165;52.388;4.928;2023-01-06T10:23:42;10.40;99.90
14172;DHT22;7165;52.388;4.928;2023-01-06T10:26:13;10.50;99.90
14172;DHT22;7165;52.388;4.928;2023-01-06T10:28:42;10.50;99.90
14172;DHT22;7165;52.388;4.928;2023-01-06T10:31:14;10.60;99.90
14172;DHT22;7165;52.388;4.928;2023-01-06T10:33:43;10.60;99.90
14172;DHT22;7165;52.388;4.928;2023-01-06T10:36:15;10.60;99.90
14172;DHT22;7165;52.388;4.928;2023-01-06T10:38:44;10.70;99.90
14172;DHT22;7165;52.388;4.928;2023-01-06T10:41:17;10.80;99.90
14172;DHT22;7165;52.388;4.928;2023-01-06T10:43:47;10.80;99.90
14172;DHT22;7165;52.388;4.928;2023-01-06T10:46:15;10.80;99.90
14172;DHT22;7165;52.388;4.928;2023-01-06T10:48:42;10.80;99.90
14172;DHT22;7165;52.388;4.928;2023-01-06T10:51:31;10.90;99.90
14172;DHT22;7165;52.388;4.928;2023-01-06T10:54:01;10.90;99.90
14172;DHT22;7165;52.388;4.928;2023-01-06T10:56:29;10.90;99.90
14172;DHT22;7165;52.388;4.928;2023-01-06T10:58:59;10.90;99.90
14172;DHT22;7165;52.388;4.928;2023-01-06T11:01:29;10.80;99.90
14172;DHT22;7165;52.388;4.928;2023-01-06T11:04:07;10.90;99.90
14172;DHT22;7165;52.388;4.928;2023-01-06T11:06:35;10.90;99.90
14172;DHT22;7165;52.388;4.928;2023-01-06T11:09:20;10.90;99.90
14172;DHT22;7165;52.388;4.928;2023-01-06T11:11:48;10.90;99.90
14172;DHT22;7165;52.388;4.928;2023-01-06T11:14:17;10.80;99.90
14172;DHT22;7165;52.388;4.928;2023-01-06T11:16:54;10.80;99.90
14172;DHT22;7165;52.388;4.928;2023-01-06T11:19:28;10.80;99.90
14172;DHT22;7165;52.388;4.928;2023-01-06T11:21:57;10.80;99.90
14172;DHT22;7165;52.388;4.928;2023-01-06T11:24:25;10.80;99.90
14172;DHT22;7165;52.388;4.928;2023-01-06T11:26:54;10.80;99.90
14172;DHT22;7165;52.388;4.928;2023-01-06T11:29:27;10.80;99.90
14172;DHT22;7165;52.388;4.928;2023-01-06T11:31:58;10.80;99.90
14172;DHT22;7165;52.388;4.928;2023-01-06T11:34:26;10.90;99.90
14172;DHT22;7165;52.388;4.928;2023-01-06T11:36:54;10.90;99.90
14172;DHT22;7165;52.388;4.928;2023-01-06T11:39:25;10.90;99.90
14172;DHT22;7165;52.388;4.928;2023-01-06T11:41:54;11.00;99.90
14172;DHT22;7165;52.388;4.928;2023-01-06T11:44:29;11.00;99.90
14172;DHT22;7165;52.388;4.928;2023-01-06T11:46:59;11.00;99.90
14172;DHT22;7165;52.388;4.928;2023-01-06T11:49:29;11.00;99.90
14172;DHT22;7165;52.388;4.928;2023-01-06T11:51:59;11.00;99.90
14172;DHT22;7165;52.388;4.928;2023-01-06T11:54:33;11.00;99.90
14172;DHT22;7165;52.388;4.928;2023-01-06T11:57:02;11.00;99.90
14172;DHT22;7165;52.388;4.928;2023-01-06T11:59:45;10.90;99.90
14172;DHT22;7165;52.388;4.928;2023-01-06T12:02:20;11.00;99.90
14172;DHT22;7165;52.388;4.928;2023-01-06T12:04:51;11.00;99.90
14172;DHT22;7165;52.388;4.928;2023-01-06T12:07:22;11.00;99.90
14172;DHT22;7165;52.388;4.928;2023-01-06T12:09:51;11.00;99.90
14172;DHT22;7165;52.388;4.928;2023-01-06T12:12:20;11.00;99.90
14172;DHT22;7165;52.388;4.928;2023-01-06T12:14:55;11.00;99.90
14172;DHT22;7165;52.388;4.928;2023-01-06T12:17:34;11.00;99.90
14172;DHT22;7165;52.388;4.928;2023-01-06T12:20:05;11.00;99.90
14172;DHT22;7165;52.388;4.928;2023-01-06T12:22:37;11.00;99.90
14172;DHT22;7165;52.388;4.928;2023-01-06T12:25:05;11.00;99.90
14172;DHT22;7165;52.388;4.928;2023-01-06T12:27:39;11.00;99.90
14172;DHT22;7165;52.388;4.928;2023-01-06T12:30:15;11.00;99.90
14172;DHT22;7165;52.388;4.928;2023-01-06T12:32:46;11.00;99.90
14172;DHT22;7165;52.388;4.928;2023-01-06T12:35:17;11.00;99.90
14172;DHT22;7165;52.388;4.928;2023-01-06T12:37:48;11.00;99.90
14172;DHT22;7165;52.388;4.928;2023-01-06T12:40:21;11.00;99.90
14172;DHT22;7165;52.388;4.928;2023-01-06T12:42:53;10.90;99.90
14172;DHT22;7165;52.388;4.928;2023-01-06T12:45:27;10.90;99.90
14172;DHT22;7165;52.388;4.928;2023-01-06T12:47:58;10.90;99.90
14172;DHT22;7165;52.388;4.928;2023-01-06T12:50:32;10.90;99.90
14172;DHT22;7165;52.388;4.928;2023-01-06T12:53:02;10.90;99.90
14172;DHT22;7165;52.388;4.928;2023-01-06T12:55:40;10.90;99.90
14172;DHT22;7165;52.388;4.928;2023-01-06T12:58:15;10.90;99.90
14172;DHT22;7165;52.388;4.928;2023-01-06T13:00:50;10.90;99.90
14172;DHT22;7165;52.388;4.928;2023-01-06T13:03:46;10.90;99.90
14172;DHT22;7165;52.388;4.928;2023-01-06T13:06:31;10.90;99.90
14172;DHT22;7165;52.388;4.928;2023-01-06T13:09:10;10.90;99.90
14172;DHT22;7165;52.388;4.928;2023-01-06T13:11:56;10.90;99.90
14172;DHT22;7165;52.388;4.928;2023-01-06T13:14:30;10.90;99.90
14172;DHT22;7165;52.388;4.928;2023-01-06T13:17:02;10.90;99.90
14172;DHT22;7165;52.388;4.928;2023-01-06T13:19:39;10.90;99.90
14172;DHT22;7165;52.388;4.928;2023-01-06T13:22:13;10.90;99.90
14172;DHT22;7165;52.388;4.928;2023-01-06T13:25:09;10.90;99.90
14172;DHT22;7165;52.388;4.928;2023-01-06T13:27:52;10.90;99.90
14172;DHT22;7165;52.388;4.928;2023-01-06T13:30:50;10.90;99.90
14172;DHT22;7165;52.388;4.928;2023-01-06T13:33:42;10.90;99.90
14172;DHT22;7165;52.388;4.928;2023-01-06T13:36:26;10.90;99.90
14172;DHT22;7165;52.388;4.928;2023-01-06T13:39:00;11.00;99.90
14172;DHT22;7165;52.388;4.928;2023-01-06T13:41:32;11.00;99.90
14172;DHT22;7165;52.388;4.928;2023-01-06T13:44:01;11.00;99.90
14172;DHT22;7165;52.388;4.928;2023-01-06T13:46:29;11.10;99.90
14172;DHT22;7165;52.388;4.928;2023-01-06T13:48:59;11.00;99.90
14172;DHT22;7165;52.388;4.928;2023-01-06T13:51:31;11.10;99.90
14172;DHT22;7165;52.388;4.928;2023-01-06T13:53:59;11.00;99.90
14172;DHT22;7165;52.388;4.928;2023-01-06T13:56:29;11.00;99.90
14172;DHT22;7165;52.388;4.928;2023-01-06T13:59:23;11.00;99.90
14172;DHT22;7165;52.388;4.928;2023-01-06T14:01:51;11.00;99.90
14172;DHT22;7165;52.388;4.928;2023-01-06T14:04:45;10.90;99.90
14172;DHT22;7165;52.388;4.928;2023-01-06T14:07:14;10.90;99.90
14172;DHT22;7165;52.388;4.928;2023-01-06T14:09:55;10.90;99.90
14172;DHT22;7165;52.388;4.928;2023-01-06T14:12:23;10.90;99.90
14172;DHT22;7165;52.388;4.928;2023-01-06T14:14:58;10.90;99.90
14172;DHT22;7165;52.388;4.928;2023-01-06T14:17:28;10.90;99.90
14172;DHT22;7165;52.388;4.928;2023-01-06T14:19:56;10.90;99.90
14172;DHT22;7165;52.388;4.928;2023-01-06T14:22:25;10.90;99.90
14172;DHT22;7165;52.388;4.928;2023-01-06T14:24:57;10.90;99.90
14172;DHT22;7165;52.388;4.928;2023-01-06T14:30:37;10.90;99.90
14172;DHT22;7165;52.388;4.928;2023-01-06T14:33:33;10.90;99.90
14172;DHT22;7165;52.388;4.928;2023-01-06T14:36:04;10.90;99.90
14172;DHT22;7165;52.388;4.928;2023-01-06T14:38:41;10.80;99.90
14172;DHT22;7165;52.388;4.928;2023-01-06T14:41:16;10.80;99.90
14172;DHT22;7165;52.388;4.928;2023-01-06T14:43:51;10.80;99.90
14172;DHT22;7165;52.388;4.928;2023-01-06T14:46:21;10.80;99.90
14172;DHT22;7165;52.388;4.928;2023-01-06T14:48:53;10.70;99.90
14172;DHT22;7165;52.388;4.928;2023-01-06T14:51:21;10.70;99.90
14172;DHT22;7165;52.388;4.928;2023-01-06T14:53:55;10.70;99.90
14172;DHT22;7165;52.388;4.928;2023-01-06T14:56:24;10.70;99.90
14172;DHT22;7165;52.388;4.928;2023-01-06T14:59:05;10.70;99.90
14172;DHT22;7165;52.388;4.928;2023-01-06T15:01:33;10.70;99.90
14172;DHT22;7165;52.388;4.928;2023-01-06T15:04:02;10.70;99.90
14172;DHT22;7165;52.388;4.928;2023-01-06T15:06:30;10.70;99.90
14172;DHT22;7165;52.388;4.928;2023-01-06T15:09:11;10.70;99.90
14172;DHT22;7165;52.388;4.928;2023-01-06T15:11:42;10.60;99.90
14172;DHT22;7165;52.388;4.928;2023-01-06T15:14:30;10.60;99.90
14172;DHT22;7165;52.388;4.928;2023-01-06T15:17:00;10.50;99.90
14172;DHT22;7165;52.388;4.928;2023-01-06T15:19:28;10.50;99.90
14172;DHT22;7165;52.388;4.928;2023-01-06T15:21:55;10.50;99.90
14172;DHT22;7165;52.388;4.928;2023-01-06T15:24:26;10.50;99.90
14172;DHT22;7165;52.388;4.928;2023-01-06T15:26:54;10.40;99.90
14172;DHT22;7165;52.388;4.928;2023-01-06T15:29:23;10.40;99.90
14172;DHT22;7165;52.388;4.928;2023-01-06T15:31:52;10.40;99.90
14172;DHT22;7165;52.388;4.928;2023-01-06T15:34:21;10.30;99.90
14172;DHT22;7165;52.388;4.928;2023-01-06T15:36:51;10.30;99.90
14172;DHT22;7165;52.388;4.928;2023-01-06T15:39:26;10.30;99.90
14172;DHT22;7165;52.388;4.928;2023-01-06T15:41:54;10.30;99.90
14172;DHT22;7165;52.388;4.928;2023-01-06T15:44:27;10.20;99.90
14172;DHT22;7165;52.388;4.928;2023-01-06T15:46:59;10.20;99.90
14172;DHT22;7165;52.388;4.928;2023-01-06T15:49:29;10.20;99.90
14172;DHT22;7165;52.388;4.928;2023-01-06T15:52:00;10.20;99.90
14172;DHT22;7165;52.388;4.928;2023-01-06T15:54:30;10.20;99.90
14172;DHT22;7165;52.388;4.928;2023-01-06T15:56:58;10.10;99.90
14172;DHT22;7165;52.388;4.928;2023-01-06T15:59:25;10.10;99.90
14172;DHT22;7165;52.388;4.928;2023-01-06T16:01:53;10.10;99.90
14172;DHT22;7165;52.388;4.928;2023-01-06T16:04:21;10.00;99.90
14172;DHT22;7165;52.388;4.928;2023-01-06T16:06:49;10.00;99.90
14172;DHT22;7165;52.388;4.928;2023-01-06T16:09:26;9.90;99.90
14172;DHT22;7165;52.388;4.928;2023-01-06T16:12:13;10.00;99.90
14172;DHT22;7165;52.388;4.928;2023-01-06T16:14:41;9.90;99.90
14172;DHT22;7165;52.388;4.928;2023-01-06T16:17:13;9.90;99.90
14172;DHT22;7165;52.388;4.928;2023-01-06T16:19:45;9.90;99.90
14172;DHT22;7165;52.388;4.928;2023-01-06T16:22:31;9.90;99.90
14172;DHT22;7165;52.388;4.928;2023-01-06T16:25:00;9.80;99.90
14172;DHT22;7165;52.388;4.928;2023-01-06T16:27:29;9.80;99.90
14172;DHT22;7165;52.388;4.928;2023-01-06T16:30:07;9.90;99.90
14172;DHT22;7165;52.388;4.928;2023-01-06T16:32:37;9.90;99.90